Time;durP1;ratioP1;P1;durP2;ratioP2;P2;SDS_P1;SDS_P2;PMS_P1;PMS_P2;Temp;Humidity;BMP_temperature;BMP_pressure;BME280_temperature;BME280_humidity;BME280_pressure;Samples;Min_cycle;Max_cycle;Signal;HPM_P1;HPM_P2
2023/12/24 00:02:09;;;;;;;0.40;0.40;;;;;;;11.70;100.00;100028.50;4986316;28;20034;-76
2023/12/24 00:04:35;;;;;;;0.30;0.30;;;;;;;11.71;100.00;100032.03;5018592;28;20037;-75
2023/12/24 00:07:00;;;;;;;0.50;0.50;;;;;;;11.70;100.00;100012.34;5002740;28;20038;-75
2023/12/24 00:09:26;;;;;;;0.40;0.40;;;;;;;11.70;100.00;100017.75;5002750;28;20037;-75
2023/12/24 00:11:52;;;;;;;0.30;0.30;;;;;;;11.73;100.00;100016.50;5018610;28;20464;-76
2023/12/24 00:14:18;;;;;;;0.30;0.30;;;;;;;11.73;100.00;100017.34;5001253;28;20172;-75
2023/12/24 00:16:44;;;;;;;0.35;0.35;;;;;;;11.73;100.00;100008.44;5002517;28;20358;-76
2023/12/24 00:19:09;;;;;;;0.40;0.40;;;;;;;11.75;100.00;100017.13;5002139;28;20037;-76
2023/12/24 00:21:35;;;;;;;0.30;0.30;;;;;;;11.74;100.00;100029.75;5001844;28;20155;-76
2023/12/24 00:24:01;;;;;;;0.40;0.40;;;;;;;11.74;100.00;100008.22;5001999;28;20037;-76
2023/12/24 00:26:27;;;;;;;0.30;0.30;;;;;;;11.76;100.00;100016.09;5002087;28;20045;-75
2023/12/24 00:28:52;;;;;;;0.30;0.30;;;;;;;11.75;100.00;100007.19;5002114;28;20403;-75
2023/12/24 00:31:18;;;;;;;0.40;0.40;;;;;;;11.74;100.00;100002.81;5002258;28;20175;-75
2023/12/24 00:33:44;;;;;;;0.40;0.40;;;;;;;11.76;100.00;100000.75;5002127;28;20033;-76
2023/12/24 00:36:09;;;;;;;0.40;0.40;;;;;;;11.76;100.00;100000.75;5002061;28;20037;-76
2023/12/24 00:38:35;;;;;;;0.30;0.30;;;;;;;11.76;100.00;100002.63;5001888;28;20026;-75
2023/12/24 00:41:01;;;;;;;0.40;0.40;;;;;;;11.76;100.00;100000.75;5001913;28;20068;-75
2023/12/24 00:43:27;;;;;;;0.40;0.40;;;;;;;11.77;100.00;99999.72;5002049;28;20495;-75
2023/12/24 00:45:52;;;;;;;0.30;0.30;;;;;;;11.79;100.00;99999.53;5001917;28;20107;-75
2023/12/24 00:48:18;;;;;;;0.30;0.30;;;;;;;11.78;100.00;99996.00;5022410;28;20366;-76
2023/12/24 00:50:44;;;;;;;0.40;0.40;;;;;;;11.79;100.00;99989.59;5040871;28;20043;-75
2023/12/24 00:53:09;;;;;;;0.32;0.32;;;;;;;11.81;100.00;99984.00;5051926;28;20032;-76
2023/12/24 00:55:35;;;;;;;0.40;0.40;;;;;;;11.81;100.00;99970.53;5069044;28;20483;-75
2023/12/24 00:58:01;;;;;;;0.40;0.40;;;;;;;11.82;100.00;99977.56;5057234;28;20033;-75
2023/12/24 01:00:26;;;;;;;0.40;0.40;;;;;;;11.82;100.00;99966.81;5046166;28;20060;-75
2023/12/24 01:02:52;;;;;;;0.40;0.40;;;;;;;11.82;100.00;99954.16;4973819;28;20064;-75
2023/12/24 01:05:18;;;;;;;0.35;0.35;;;;;;;11.82;100.00;99966.81;4683550;29;20070;-76
2023/12/24 01:07:44;;;;;;;0.40;0.40;;;;;;;11.81;100.00;99957.06;4607074;30;20055;-76
2023/12/24 01:10:10;;;;;;;0.40;0.40;;;;;;;11.81;100.00;99959.75;4596598;31;20044;-75
2023/12/24 01:12:37;;;;;;;0.30;0.30;;;;;;;11.81;100.00;99944.44;4596579;31;20044;-75
2023/12/24 01:15:04;;;;;;;0.30;0.30;;;;;;;11.81;100.00;99957.06;4596259;31;20115;-76
2023/12/24 01:17:29;;;;;;;0.40;0.40;;;;;;;11.79;100.00;99957.25;4596700;31;20087;-76
2023/12/24 01:19:58;;;;;;;0.30;0.30;;;;;;;11.81;100.00;99946.28;4596453;31;20049;-76
2023/12/24 01:22:24;;;;;;;0.40;0.40;;;;;;;11.79;100.00;99951.88;4596333;31;20508;-75
2023/12/24 01:24:49;;;;;;;0.30;0.30;;;;;;;11.78;100.00;99938.63;4596224;31;20036;-76
2023/12/24 01:27:15;;;;;;;0.30;0.30;;;;;;;11.78;100.00;99933.25;4596412;31;20136;-75
2023/12/24 01:29:41;;;;;;;0.50;0.50;;;;;;;11.77;100.00;99935.06;4596299;31;20059;-75
2023/12/24 01:32:07;;;;;;;0.40;0.40;;;;;;;11.76;100.00;99930.75;4596350;31;20044;-76
2023/12/24 01:34:34;;;;;;;0.38;0.38;;;;;;;11.75;100.00;99923.72;4596252;31;20044;-76
2023/12/24 01:37:00;;;;;;;0.30;0.30;;;;;;;11.74;100.00;99931.97;4596221;31;20051;-76
2023/12/24 01:39:26;;;;;;;0.32;0.32;;;;;;;11.70;100.00;99925.34;4596342;31;20041;-75
2023/12/24 01:41:52;;;;;;;0.40;0.40;;;;;;;11.63;100.00;99923.44;4596035;31;20111;-76
2023/12/24 01:44:17;;;;;;;0.35;0.35;;;;;;;11.63;100.00;99925.31;4596075;31;20051;-75
2023/12/24 01:46:43;;;;;;;0.40;0.40;;;;;;;11.59;100.00;99924.06;4596171;31;20045;-76
2023/12/24 01:49:12;;;;;;;0.40;0.40;;;;;;;11.56;100.00;99908.31;4596110;31;20044;-76
2023/12/24 01:51:38;;;;;;;0.40;0.40;;;;;;;11.54;100.00;99896.94;4596029;31;20131;-76
2023/12/24 01:54:04;;;;;;;0.30;0.30;;;;;;;11.53;100.00;99901.47;4595658;31;20116;-75
2023/12/24 01:56:33;;;;;;;0.40;0.40;;;;;;;11.52;100.00;99894.44;4595952;31;20045;-75
2023/12/24 01:58:59;;;;;;;0.40;0.40;;;;;;;11.52;100.00;99896.31;4595650;31;20045;-75
2023/12/24 02:01:26;;;;;;;0.40;0.40;;;;;;;11.50;100.00;99895.66;4595700;31;20184;-76
2023/12/24 02:03:52;;;;;;;0.30;0.30;;;;;;;11.50;100.00;99882.22;4581892;30;1345888;-76
2023/12/24 02:06:18;;;;;;;0.30;0.30;;;;;;;11.53;100.00;99884.50;4794276;29;20066;-76
2023/12/24 02:08:44;;;;;;;0.40;0.40;;;;;;;11.48;100.00;99879.72;4805825;29;20050;-76
2023/12/24 02:11:10;;;;;;;0.40;0.40;;;;;;;11.52;100.00;99878.28;4821197;29;20035;-75
2023/12/24 02:13:36;;;;;;;0.40;0.40;;;;;;;11.51;100.00;99884.72;4821326;29;20050;-76
2023/12/24 02:16:03;;;;;;;0.30;0.30;;;;;;;11.51;100.00;99878.47;4821171;29;20070;-75
2023/12/24 02:18:28;;;;;;;0.40;0.40;;;;;;;11.50;100.00;99880.34;4821069;29;20110;-76
2023/12/24 02:21:04;;;;;;;0.40;0.40;;;;;;;11.51;100.00;99884.72;4820932;29;20121;-76
2023/12/24 02:23:30;;;;;;;0.40;0.40;;;;;;;11.52;100.00;99888.22;4820973;29;20046;-75
2023/12/24 02:26:28;;;;;;;0.30;0.30;;;;;;;11.52;100.00;99872.06;4805911;29;20071;-75
2023/12/24 02:28:59;;;;;;;0.30;0.30;;;;;;;11.51;100.00;99867.69;4820443;29;20077;-75
2023/12/24 02:31:31;;;;;;;0.35;0.35;;;;;;;11.53;100.00;99854.88;4820454;29;20176;-76
2023/12/24 02:33:57;;;;;;;0.40;0.40;;;;;;;11.51;100.00;99865.88;4805522;29;20046;-75
2023/12/24 02:36:23;;;;;;;0.32;0.32;;;;;;;11.51;100.00;99870.41;4819882;29;20475;-75
2023/12/24 02:38:50;;;;;;;0.40;0.40;;;;;;;11.53;100.00;99881.78;4820981;29;20086;-75
2023/12/24 02:41:16;;;;;;;0.30;0.30;;;;;;;11.53;100.00;99874.53;4820551;29;20427;-75
2023/12/24 02:43:42;;;;;;;0.32;0.32;;;;;;;11.53;100.00;99873.72;4820849;29;20063;-75
2023/12/24 02:46:08;;;;;;;0.30;0.30;;;;;;;11.52;100.00;99869.38;4820546;29;20031;-76
2023/12/24 02:48:33;;;;;;;0.40;0.40;;;;;;;11.53;100.00;99876.41;4820870;29;20172;-75
2023/12/24 02:50:59;;;;;;;0.32;0.32;;;;;;;11.57;100.00;99869.59;4820687;29;20498;-75
2023/12/24 02:53:25;;;;;;;0.30;0.30;;;;;;;11.60;100.00;99870.00;4820710;29;20043;-75
2023/12/24 02:55:50;;;;;;;0.40;0.40;;;;;;;11.59;100.00;99864.81;4820511;29;20155;-76
2023/12/24 02:58:16;;;;;;;0.30;0.30;;;;;;;11.60;100.00;99855.72;4820615;29;20046;-76
2023/12/24 03:00:42;;;;;;;0.40;0.40;;;;;;;11.60;100.00;99861.94;4820644;29;20427;-76
2023/12/24 03:03:12;;;;;;;0.30;0.30;;;;;;;11.60;100.00;99861.13;4829664;29;20132;-75
2023/12/24 03:05:40;;;;;;;0.40;0.40;;;;;;;11.59;100.00;99870.19;4853855;28;20054;-75
2023/12/24 03:08:06;;;;;;;0.40;0.40;;;;;;;11.57;100.00;99856.13;4945108;29;20043;-76
2023/12/24 03:10:31;;;;;;;0.30;0.30;;;;;;;11.58;100.00;99852.41;4954713;29;20196;-75
2023/12/24 03:12:59;;;;;;;0.40;0.40;;;;;;;11.58;100.00;99842.44;4954403;28;20043;-75
2023/12/24 03:15:25;;;;;;;0.40;0.40;;;;;;;11.57;100.00;99848.06;4954286;29;20486;-76
2023/12/24 03:17:51;;;;;;;0.40;0.40;;;;;;;11.57;100.00;99848.88;4954166;29;20110;-75
2023/12/24 03:20:16;;;;;;;0.40;0.40;;;;;;;11.59;100.00;99840.59;4954193;29;20035;-75
2023/12/24 03:22:42;;;;;;;0.30;0.30;;;;;;;11.60;100.00;99836.88;4953965;29;20114;-76
2023/12/24 03:25:08;;;;;;;0.40;0.40;;;;;;;11.60;100.00;99828.81;4969798;28;20549;-77
2023/12/24 03:27:34;;;;;;;0.38;0.38;;;;;;;11.59;100.00;99848.66;4938375;28;20122;-75
2023/12/24 03:29:59;;;;;;;0.40;0.40;;;;;;;11.58;100.00;99830.88;4954167;29;20435;-76
2023/12/24 03:32:25;;;;;;;0.30;0.30;;;;;;;11.56;100.00;99831.06;4953642;29;20031;-75
2023/12/24 03:34:51;;;;;;;0.40;0.40;;;;;;;11.55;100.00;99821.34;4954259;29;20390;-76
2023/12/24 03:37:16;;;;;;;0.40;0.40;;;;;;;11.54;100.00;99825.06;4938198;29;20039;-76
2023/12/24 03:39:42;;;;;;;0.40;0.40;;;;;;;11.54;100.00;99819.69;4938167;29;20027;-76
2023/12/24 03:42:08;;;;;;;0.40;0.40;;;;;;;11.52;100.00;99821.75;4953941;28;20467;-76
2023/12/24 03:44:33;;;;;;;0.40;0.40;;;;;;;11.50;100.00;99823.81;4953776;29;20474;-75
2023/12/24 03:46:59;;;;;;;0.38;0.38;;;;;;;11.49;100.00;99818.66;4938214;28;20035;-76
2023/12/24 03:49:25;;;;;;;0.40;0.40;;;;;;;11.52;100.00;99820.94;4973345;28;20031;-76
2023/12/24 03:51:50;;;;;;;0.40;0.40;;;;;;;11.51;100.00;99816.56;4941503;29;20035;-76
2023/12/24 03:54:21;;;;;;;0.30;0.30;;;;;;;11.50;100.00;99814.91;4941669;29;20039;-76
2023/12/24 03:56:47;;;;;;;0.30;0.30;;;;;;;11.49;100.00;99805.19;4973460;28;20038;-76
2023/12/24 03:59:13;;;;;;;0.40;0.40;;;;;;;11.53;100.00;99798.34;4957400;29;20039;-75
2023/12/24 04:01:39;;;;;;;0.32;0.32;;;;;;;11.51;100.00;99797.72;4957354;29;20213;-75
2023/12/24 04:04:05;;;;;;;0.30;0.30;;;;;;;11.53;100.00;99790.25;4944232;28;20530;-76
2023/12/24 04:06:31;;;;;;;0.40;0.40;;;;;;;11.54;100.00;99797.31;4928803;29;20130;-75
2023/12/24 04:08:56;;;;;;;0.32;0.32;;;;;;;11.53;100.00;99792.97;4925375;29;20074;-76
2023/12/24 04:11:24;;;;;;;0.40;0.40;;;;;;;11.53;100.00;99787.56;4925299;29;20074;-76
2023/12/24 04:13:50;;;;;;;0.35;0.35;;;;;;;11.53;100.00;99788.41;4925729;29;20039;-76
2023/12/24 04:16:17;;;;;;;0.40;0.40;;;;;;;11.55;100.00;99782.81;4941132;29;20031;-75
2023/12/24 04:18:42;;;;;;;0.40;0.40;;;;;;;11.55;100.00;99788.19;4925447;29;20037;-75
2023/12/24 04:21:08;;;;;;;0.40;0.40;;;;;;;11.56;100.00;99792.53;4925294;29;20039;-75
2023/12/24 04:23:34;;;;;;;0.30;0.30;;;;;;;11.53;100.00;99779.50;4925345;29;20046;-75
2023/12/24 04:26:00;;;;;;;0.40;0.40;;;;;;;11.54;100.00;99773.09;4925194;29;20475;-75
2023/12/24 04:28:25;;;;;;;0.30;0.30;;;;;;;11.54;100.00;99770.41;4925092;29;20182;-75
2023/12/24 04:30:53;;;;;;;0.40;0.40;;;;;;;11.54;100.00;99768.53;4925229;29;20223;-76
2023/12/24 04:33:19;;;;;;;0.40;0.40;;;;;;;11.54;100.00;99775.78;4956404;29;20024;-76
2023/12/24 04:35:45;;;;;;;0.30;0.30;;;;;;;11.54;100.00;99771.22;4941058;29;20049;-76
2023/12/24 04:38:11;;;;;;;0.30;0.30;;;;;;;11.54;100.00;99771.22;4924811;29;20368;-76
2023/12/24 04:40:37;;;;;;;0.40;0.40;;;;;;;11.55;100.00;99763.97;4940818;28;20043;-76
2023/12/24 04:43:02;;;;;;;0.32;0.32;;;;;;;11.52;100.00;99761.69;4972238;28;20034;-75
2023/12/24 04:45:28;;;;;;;0.30;0.30;;;;;;;11.55;100.00;99758.59;4940759;29;20129;-75
2023/12/24 04:47:58;;;;;;;0.40;0.40;;;;;;;11.55;100.00;99753.19;4940718;29;20122;-75
2023/12/24 04:50:24;;;;;;;0.40;0.40;;;;;;;11.54;100.00;99748.88;4956467;29;20494;-76
2023/12/24 04:52:50;;;;;;;0.38;0.38;;;;;;;11.54;100.00;99754.25;4924653;29;20031;-76
2023/12/24 04:55:16;;;;;;;0.30;0.30;;;;;;;11.53;100.00;99750.69;4940500;29;20034;-76
2023/12/24 04:57:41;;;;;;;0.40;0.40;;;;;;;11.52;100.00;99750.94;4924782;29;20145;-75
2023/12/24 05:00:08;;;;;;;0.30;0.30;;;;;;;11.50;100.00;99745.75;4924045;29;20570;-75
2023/12/24 05:02:35;;;;;;;0.30;0.30;;;;;;;11.51;100.00;99743.88;4928012;28;20027;-76
2023/12/24 05:05:04;;;;;;;0.40;0.40;;;;;;;11.50;100.00;99743.03;4978751;28;20041;-75
2023/12/24 05:07:30;;;;;;;0.35;0.35;;;;;;;11.49;100.00;99741.41;4983456;28;20069;-75
2023/12/24 05:09:56;;;;;;;0.40;0.40;;;;;;;11.48;100.00;99734.34;4982031;28;20417;-75
2023/12/24 05:12:22;;;;;;;0.30;0.30;;;;;;;11.48;100.00;99738.91;4981918;28;20033;-75
2023/12/24 05:14:47;;;;;;;0.40;0.40;;;;;;;11.48;100.00;99733.53;4981887;28;20034;-76
2023/12/24 05:17:13;;;;;;;0.40;0.40;;;;;;;11.48;100.00;99733.53;5014274;28;20037;-76
2023/12/24 05:19:39;;;;;;;0.43;0.43;;;;;;;11.49;100.00;99743.28;4981836;28;20044;-75
2023/12/24 05:22:04;;;;;;;0.30;0.30;;;;;;;11.49;100.00;99730.63;4981600;28;20064;-75
2023/12/24 05:24:32;;;;;;;0.40;0.40;;;;;;;11.50;100.00;99731.47;4997615;28;20053;-75
2023/12/24 05:26:58;;;;;;;0.40;0.40;;;;;;;11.48;100.00;99725.44;4981637;28;20034;-76
2023/12/24 05:29:24;;;;;;;0.30;0.30;;;;;;;11.47;100.00;99713.84;4981817;28;20037;-75
2023/12/24 05:31:49;;;;;;;0.40;0.40;;;;;;;11.45;100.00;99708.66;4981399;28;20537;-75
2023/12/24 05:34:15;;;;;;;0.35;0.35;;;;;;;11.47;100.00;99707.66;4997185;28;20045;-77
2023/12/24 05:36:41;;;;;;;0.40;0.40;;;;;;;11.47;100.00;99694.19;4997218;28;20030;-75
2023/12/24 05:39:07;;;;;;;0.40;0.40;;;;;;;11.44;100.00;99696.25;4981320;28;20049;-75
2023/12/24 05:41:33;;;;;;;0.30;0.30;;;;;;;11.43;100.00;99700.00;4981368;28;20034;-76
2023/12/24 05:43:59;;;;;;;0.30;0.30;;;;;;;11.43;100.00;99693.75;4981337;28;20469;-76
2023/12/24 05:46:25;;;;;;;0.40;0.40;;;;;;;11.44;100.00;99698.13;4965351;28;20038;-76
2023/12/24 05:48:50;;;;;;;0.40;0.40;;;;;;;11.42;100.00;99700.19;4981260;28;20490;-75
2023/12/24 05:51:16;;;;;;;0.30;0.30;;;;;;;11.43;100.00;99696.44;5013592;28;20394;-75
2023/12/24 05:53:42;;;;;;;0.30;0.30;;;;;;;11.42;100.00;99692.94;4997259;28;20112;-75
2023/12/24 05:56:08;;;;;;;0.40;0.40;;;;;;;11.42;100.00;99692.94;5013197;28;20066;-75
2023/12/24 05:58:34;;;;;;;0.32;0.32;;;;;;;11.41;100.00;99679.69;4981091;28;20045;-75
2023/12/24 06:01:00;;;;;;;0.40;0.40;;;;;;;11.42;100.00;99692.94;4997072;28;20524;-75
2023/12/24 06:03:26;;;;;;;0.30;0.30;;;;;;;11.41;100.00;99696.66;4985566;28;20179;-76
2023/12/24 06:05:51;;;;;;;0.40;0.40;;;;;;;11.39;100.00;99681.75;5000615;28;20037;-76
2023/12/24 06:08:17;;;;;;;0.40;0.40;;;;;;;11.36;100.00;99669.56;5000539;28;20408;-75
2023/12/24 06:10:43;;;;;;;0.40;0.40;;;;;;;11.35;100.00;99667.91;4999765;28;20037;-76
2023/12/24 06:13:09;;;;;;;0.30;0.30;;;;;;;11.36;100.00;99671.41;4984192;28;20111;-75
2023/12/24 06:15:35;;;;;;;0.40;0.40;;;;;;;11.36;100.00;99666.84;5000267;28;20124;-76
2023/12/24 06:18:01;;;;;;;0.40;0.40;;;;;;;11.38;100.00;99675.56;5032844;28;20120;-75
2023/12/24 06:20:29;;;;;;;0.40;0.40;;;;;;;11.38;100.00;99683.63;5016630;28;20077;-76
2023/12/24 06:22:55;;;;;;;0.32;0.32;;;;;;;11.39;100.00;99673.69;5000345;28;20025;-75
2023/12/24 06:25:21;;;;;;;0.40;0.40;;;;;;;11.38;100.00;99675.56;5000129;28;20388;-76
2023/12/24 06:27:47;;;;;;;0.40;0.40;;;;;;;11.38;100.00;99672.03;4999858;28;20495;-76
2023/12/24 06:30:13;;;;;;;0.40;0.40;;;;;;;11.38;100.00;99680.94;4999812;28;20069;-75
2023/12/24 06:32:41;;;;;;;0.40;0.40;;;;;;;11.39;100.00;99665.63;4999952;28;20087;-76
2023/12/24 06:35:08;;;;;;;0.30;0.30;;;;;;;11.40;100.00;99668.09;5000307;28;20029;-76
2023/12/24 06:37:34;;;;;;;0.40;0.40;;;;;;;11.42;100.00;99667.88;5000606;28;20507;-75
2023/12/24 06:39:59;;;;;;;0.40;0.40;;;;;;;11.43;100.00;99677.59;4999907;28;20527;-76
2023/12/24 06:42:25;;;;;;;0.40;0.40;;;;;;;11.42;100.00;99681.34;4999648;28;20029;-76
2023/12/24 06:44:51;;;;;;;0.40;0.40;;;;;;;11.44;100.00;99693.56;4999801;28;20152;-76
2023/12/24 06:47:17;;;;;;;0.40;0.40;;;;;;;11.44;100.00;99677.41;5016413;28;20481;-76
2023/12/24 06:49:44;;;;;;;0.30;0.30;;;;;;;11.44;100.00;99682.78;4999773;28;20042;-76
2023/12/24 06:52:11;;;;;;;0.30;0.30;;;;;;;11.48;100.00;99685.06;5016465;28;20099;-76
2023/12/24 06:54:36;;;;;;;0.40;0.40;;;;;;;11.48;100.00;99674.28;4999853;28;20038;-75
2023/12/24 06:57:04;;;;;;;0.47;0.47;;;;;;;11.52;100.00;99683.63;4999616;28;20067;-76
2023/12/24 06:59:29;;;;;;;0.40;0.40;;;;;;;11.52;100.00;99681.75;5016024;28;20038;-75
2023/12/24 07:01:55;;;;;;;0.30;0.30;;;;;;;11.52;100.00;99683.63;4999650;28;20361;-75
2023/12/24 07:04:21;;;;;;;0.30;0.30;;;;;;;11.53;100.00;99682.56;5015911;28;20043;-76
2023/12/24 07:06:47;;;;;;;0.30;0.30;;;;;;;11.54;100.00;99684.25;4999620;28;20029;-75
2023/12/24 07:09:12;;;;;;;0.40;0.40;;;;;;;11.53;100.00;99682.56;5016224;28;20041;-76
2023/12/24 07:11:38;;;;;;;0.32;0.32;;;;;;;11.54;100.00;99687.78;4999655;28;20036;-75
2023/12/24 07:14:04;;;;;;;0.40;0.40;;;;;;;11.54;100.00;99687.78;4999348;28;20468;-76
2023/12/24 07:16:29;;;;;;;0.47;0.47;;;;;;;11.54;100.00;99695.03;4999787;28;20044;-75
2023/12/24 07:18:57;;;;;;;0.40;0.40;;;;;;;11.57;100.00;99678.44;4999462;28;20476;-75
2023/12/24 07:21:23;;;;;;;0.40;0.40;;;;;;;11.56;100.00;99688.38;4999705;28;20037;-75
2023/12/24 07:23:49;;;;;;;0.45;0.45;;;;;;;11.57;100.00;99683.84;4986634;28;20388;-76
2023/12/24 07:26:14;;;;;;;0.35;0.35;;;;;;;11.57;100.00;99675.75;5035760;28;20021;-76
2023/12/24 07:28:40;;;;;;;0.40;0.40;;;;;;;11.58;100.00;99682.78;5003401;28;20034;-76
2023/12/24 07:31:06;;;;;;;0.40;0.40;;;;;;;11.57;100.00;99676.56;5003426;28;20048;-75
2023/12/24 07:33:34;;;;;;;0.35;0.35;;;;;;;11.58;100.00;99658.56;5035786;28;20037;-75
2023/12/24 07:36:00;;;;;;;0.40;0.40;;;;;;;11.61;100.00;99666.22;5003102;28;20045;-75
2023/12/24 07:38:29;;;;;;;0.30;0.30;;;;;;;11.63;100.00;99669.53;5003050;28;20037;-76
2023/12/24 07:40:56;;;;;;;0.40;0.40;;;;;;;11.63;100.00;99674.91;5003692;28;20473;-75
2023/12/24 07:43:22;;;;;;;0.40;0.40;;;;;;;11.64;100.00;99676.56;5019167;28;20030;-75
2023/12/24 07:45:48;;;;;;;0.30;0.30;;;;;;;11.62;100.00;99655.25;5003017;28;20041;-76
2023/12/24 07:48:14;;;;;;;0.30;0.30;;;;;;;11.62;100.00;99659.81;5002954;28;20049;-76
2023/12/24 07:50:39;;;;;;;0.30;0.30;;;;;;;11.61;100.00;99668.91;5003004;28;20033;-76
2023/12/24 07:53:05;;;;;;;0.30;0.30;;;;;;;11.60;100.00;99678.03;5002829;28;20037;-76
2023/12/24 07:55:31;;;;;;;0.30;0.30;;;;;;;11.59;100.00;99674.50;5002562;28;20057;-75
2023/12/24 07:57:56;;;;;;;0.30;0.30;;;;;;;11.60;100.00;99667.25;5002863;28;20052;-76
2023/12/24 08:00:22;;;;;;;0.40;0.40;;;;;;;11.60;100.00;99669.94;5019117;28;20048;-76
2023/12/24 08:02:48;;;;;;;0.32;0.32;;;;;;;11.59;100.00;99687.97;5002557;28;20047;-75
2023/12/24 08:05:13;;;;;;;0.40;0.40;;;;;;;11.60;100.00;99668.06;4983157;28;20034;-76
2023/12/24 08:07:39;;;;;;;0.40;0.40;;;;;;;11.59;100.00;99666.44;4983117;28;20037;-75
2023/12/24 08:10:07;;;;;;;0.38;0.38;;;;;;;11.58;100.00;99682.78;4983225;28;20021;-75
2023/12/24 08:12:33;;;;;;;0.40;0.40;;;;;;;11.57;100.00;99683.84;5015657;28;20042;-75
2023/12/24 08:14:58;;;;;;;0.40;0.40;;;;;;;11.56;100.00;99663.31;4983057;28;20037;-75
2023/12/24 08:17:32;;;;;;;0.40;0.40;;;;;;;11.57;100.00;99689.22;4984329;28;20069;-76
2023/12/24 08:19:58;;;;;;;0.40;0.40;;;;;;;11.56;100.00;99692.94;4983165;28;20042;-76
2023/12/24 08:22:23;;;;;;;0.30;0.30;;;;;;;11.56;100.00;99674.91;4982567;28;20026;-76
2023/12/24 08:24:49;;;;;;;0.35;0.35;;;;;;;11.56;100.00;99674.91;4982963;28;20026;-75
2023/12/24 08:27:15;;;;;;;0.40;0.40;;;;;;;11.55;100.00;99683.22;4998773;28;20029;-76
2023/12/24 08:29:40;;;;;;;0.40;0.40;;;;;;;11.56;100.00;99692.94;4982863;28;20049;-76
2023/12/24 08:32:06;;;;;;;0.40;0.40;;;;;;;11.57;100.00;99697.28;4982509;28;20079;-76
2023/12/24 08:34:32;;;;;;;0.30;0.30;;;;;;;11.57;100.00;99673.06;4997854;28;20084;-76
2023/12/24 08:36:58;;;;;;;0.30;0.30;;;;;;;11.58;100.00;99685.47;4982660;28;20396;-75
2023/12/24 08:39:24;;;;;;;0.40;0.40;;;;;;;11.58;100.00;99674.72;4982449;28;20034;-76
2023/12/24 08:41:50;;;;;;;0.30;0.30;;;;;;;11.57;100.00;99689.22;4982435;28;20530;-75
2023/12/24 08:44:16;;;;;;;0.30;0.30;;;;;;;11.58;100.00;99669.31;4998440;28;20037;-75
2023/12/24 08:46:45;;;;;;;0.40;0.40;;;;;;;11.57;100.00;99667.69;4982421;28;20065;-75
2023/12/24 08:49:12;;;;;;;0.40;0.40;;;;;;;11.56;100.00;99666.00;4999200;28;20499;-75
2023/12/24 08:51:38;;;;;;;0.40;0.40;;;;;;;11.54;100.00;99677.00;4981988;28;20030;-76
2023/12/24 08:54:04;;;;;;;0.30;0.30;;;;;;;11.55;100.00;99677.81;4998387;28;20033;-75
2023/12/24 08:56:33;;;;;;;0.40;0.40;;;;;;;11.57;100.00;99679.28;4982162;28;20034;-75
2023/12/24 08:59:01;;;;;;;0.40;0.40;;;;;;;11.58;100.00;99674.72;4998648;28;20104;-76
2023/12/24 09:01:27;;;;;;;0.35;0.35;;;;;;;11.58;100.00;99685.47;5014001;28;20049;-76
2023/12/24 09:03:53;;;;;;;0.30;0.30;;;;;;;11.56;100.00;99682.97;4997926;28;20159;-76
2023/12/24 09:06:18;;;;;;;0.40;0.40;;;;;;;11.56;100.00;99692.94;4982207;28;20133;-75
2023/12/24 09:08:44;;;;;;;1.65;0.63;;;;;;;11.58;100.00;99691.69;4982101;28;20120;-75
2023/12/24 09:11:10;;;;;;;0.40;0.40;;;;;;;11.56;100.00;99677.59;4981810;28;20033;-75
2023/12/24 09:13:35;;;;;;;0.50;0.50;;;;;;;11.59;100.00;99692.50;4998243;28;20026;-75
2023/12/24 09:16:03;;;;;;;3.03;1.10;;;;;;;11.63;100.00;99685.69;4981923;28;20038;-75
2023/12/24 09:18:28;;;;;;;0.40;0.40;;;;;;;11.59;100.00;99701.44;5015236;28;20040;-75
2023/12/24 09:20:54;;;;;;;0.40;0.40;;;;;;;11.59;100.00;99708.66;4998194;28;20034;-75
2023/12/24 09:23:20;;;;;;;0.45;0.45;;;;;;;11.59;100.00;99703.28;4997708;28;20030;-75
2023/12/24 09:25:45;;;;;;;0.30;0.30;;;;;;;11.57;100.00;99706.19;4981670;28;20033;-75
2023/12/24 09:28:11;;;;;;;0.30;0.30;;;;;;;11.56;100.00;99703.69;4981530;28;20032;-77
2023/12/24 09:30:37;;;;;;;0.40;0.40;;;;;;;11.48;100.00;99717.38;4981532;28;20389;-76
2023/12/24 09:33:03;;;;;;;0.40;0.40;;;;;;;11.47;100.00;99710.34;4981717;28;20049;-75
2023/12/24 09:35:30;;;;;;;0.50;0.50;;;;;;;11.29;100.00;99729.78;4981599;28;20499;-75
2023/12/24 09:37:56;;;;;;;0.40;0.40;;;;;;;11.17;100.00;99743.84;4981280;28;20512;-75
2023/12/24 09:40:24;;;;;;;0.40;0.40;;;;;;;11.15;100.00;99742.41;4964989;28;20029;-75
2023/12/24 09:42:50;;;;;;;0.40;0.40;;;;;;;11.16;100.00;99725.22;4981338;28;20485;-76
2023/12/24 09:45:16;;;;;;;0.40;0.40;;;;;;;11.16;100.00;99746.75;4981237;28;20076;-75
2023/12/24 09:47:42;;;;;;;0.30;0.30;;;;;;;11.18;100.00;99753.56;4981380;28;20041;-76
2023/12/24 09:50:08;;;;;;;0.40;0.40;;;;;;;11.20;100.00;99729.16;4981175;28;20127;-75
2023/12/24 09:52:41;;;;;;;0.40;0.40;;;;;;;11.23;100.00;99740.34;5013926;28;20113;-76
2023/12/24 09:55:07;;;;;;;0.40;0.40;;;;;;;11.28;100.00;99745.13;4981423;28;20030;-75
2023/12/24 09:57:32;;;;;;;0.40;0.40;;;;;;;11.30;100.00;99745.75;4996860;28;20435;-76
2023/12/24 09:59:58;;;;;;;0.40;0.40;;;;;;;11.29;100.00;99738.69;4981169;28;20121;-75
2023/12/24 10:02:24;;;;;;;0.40;0.40;;;;;;;11.32;100.00;99767.88;4980907;28;20034;-75
2023/12/24 10:04:50;;;;;;;0.80;0.50;;;;;;;11.35;100.00;99751.34;4980684;28;20042;-76
2023/12/24 10:07:15;;;;;;;0.93;0.50;;;;;;;11.37;100.00;99743.88;4980939;28;20404;-75
2023/12/24 10:09:41;;;;;;;0.40;0.40;;;;;;;11.38;100.00;99758.19;4996978;28;20487;-76
2023/12/24 10:12:08;;;;;;;1.08;0.50;;;;;;;11.38;100.00;99761.69;4995443;28;20056;-76
2023/12/24 10:14:35;;;;;;;3.13;0.90;;;;;;;11.35;100.00;99764.78;4978649;28;20046;-76
2023/12/24 10:17:03;;;;;;;2.20;0.60;;;;;;;11.32;100.00;99772.44;4978664;28;20038;-76
2023/12/24 10:19:29;;;;;;;0.50;0.50;;;;;;;11.31;100.00;99757.31;4979095;28;20042;-75
2023/12/24 10:22:06;;;;;;;5.88;0.90;;;;;;;11.31;100.00;99771.59;4978256;28;20040;-76
2023/12/24 10:24:40;;;;;;;1.70;0.50;;;;;;;11.29;100.00;99772.84;4994479;28;20034;-76
2023/12/24 10:27:07;;;;;;;3.38;1.05;;;;;;;11.35;100.00;99782.78;4978573;28;20044;-76
2023/12/24 10:29:34;;;;;;;0.80;0.60;;;;;;;11.35;100.00;99794.41;4995492;28;20040;-76
2023/12/24 10:32:00;;;;;;;3.20;1.27;;;;;;;11.36;100.00;99798.72;4980174;28;20037;-76
2023/12/24 10:34:26;;;;;;;1.15;0.90;;;;;;;11.41;100.00;99774.72;4980674;28;20025;-76
2023/12/24 10:36:52;;;;;;;2.38;0.77;;;;;;;11.48;100.00;99793.56;4980565;28;20038;-75
2023/12/24 10:39:24;;;;;;;2.90;1.00;;;;;;;11.51;100.00;99812.03;4979851;28;20180;-76
2023/12/24 10:41:56;;;;;;;3.03;1.02;;;;;;;11.70;100.00;99814.94;4980900;28;20036;-76
2023/12/24 10:44:24;;;;;;;1.35;1.10;;;;;;;11.60;100.00;99801.88;5012870;28;20037;-76
2023/12/24 10:46:52;;;;;;;1.73;0.80;;;;;;;11.65;100.00;99816.38;4996158;28;20120;-76
2023/12/24 10:49:18;;;;;;;4.95;2.15;;;;;;;11.69;100.00;99810.56;4980535;28;20475;-76
2023/12/24 10:51:44;;;;;;;8.75;1.20;;;;;;;11.66;100.00;99807.25;4980233;28;20129;-76
2023/12/24 10:54:10;;;;;;;2.03;0.90;;;;;;;11.63;100.00;99817.63;4980175;28;20125;-76
2023/12/24 10:57:05;;;;;;;2.55;0.93;;;;;;;11.50;100.00;99826.50;4980069;28;20117;-75
2023/12/24 10:59:48;;;;;;;3.08;0.85;;;;;;;11.54;100.00;99826.94;5020598;28;20139;-76
2023/12/24 11:02:14;;;;;;;8.80;1.40;;;;;;;11.53;100.00;99826.09;5012623;28;20030;-76
2023/12/24 11:04:48;;;;;;;1.08;0.80;;;;;;;11.54;100.00;99835.84;4980113;28;20049;-76
2023/12/24 11:07:49;;;;;;;4.85;1.67;;;;;;;11.55;100.00;99826.72;5012230;28;20044;-77
2023/12/24 11:10:41;;;;;;;0.98;0.63;;;;;;;11.58;100.00;99833.56;4994959;28;20552;-75
2023/12/24 11:13:08;;;;;;;0.82;0.60;;;;;;;11.59;100.00;99822.59;4980123;28;20083;-76
2023/12/24 11:15:44;;;;;;;1.40;1.00;;;;;;;11.65;100.00;99827.16;5011981;28;20038;-76
2023/12/24 11:18:10;;;;;;;1.10;0.57;;;;;;;11.68;100.00;99833.16;4963513;28;20042;-76
2023/12/24 11:20:42;;;;;;;1.42;1.00;;;;;;;11.80;100.00;99842.28;5012044;28;20377;-75
2023/12/24 11:23:09;;;;;;;1.77;1.15;;;;;;;11.88;100.00;99826.78;4979921;28;20034;-75